Time;durP1;ratioP1;P1;durP2;ratioP2;P2;SDS_P1;SDS_P2;PMS_P1;PMS_P2;Temp;Humidity;BMP_temperature;BMP_pressure;BME280_temperature;BME280_humidity;BME280_pressure;Samples;Min_cycle;Max_cycle;Signal;HPM_P1;HPM_P2
2023/12/01 00:00:48;;;;;;;34.53;20.15;;;1.50;99.90;;;;;;5041408;28;20025;-93
2023/12/01 00:03:14;;;;;;;32.75;21.60;;;1.50;99.90;;;;;;5016308;28;20038;-94
2023/12/01 00:05:40;;;;;;;34.38;20.88;;;1.40;99.90;;;;;;5016049;28;20026;-94
2023/12/01 00:08:06;;;;;;;33.00;20.42;;;1.40;99.90;;;;;;5030964;28;20045;-94
2023/12/01 00:10:31;;;;;;;32.67;20.73;;;1.40;99.90;;;;;;5022714;28;20036;-94
2023/12/01 00:12:57;;;;;;;36.70;23.52;;;1.50;99.90;;;;;;5033643;28;20045;-93
2023/12/01 00:15:23;;;;;;;35.50;19.58;;;1.50;99.90;;;;;;5023564;28;20093;-95
2023/12/01 00:17:52;;;;;;;31.58;20.55;;;1.50;99.90;;;;;;5014612;28;20022;-94
2023/12/01 00:20:21;;;;;;;35.92;20.15;;;1.50;99.90;;;;;;5013379;28;20022;-93
2023/12/01 00:22:46;;;;;;;33.22;20.70;;;1.50;99.90;;;;;;5034565;28;20029;-92
2023/12/01 00:25:12;;;;;;;32.88;20.33;;;1.50;99.90;;;;;;5029209;28;20057;-93
2023/12/01 00:27:38;;;;;;;31.55;20.75;;;1.50;99.90;;;;;;5025162;28;20014;-93
2023/12/01 00:30:05;;;;;;;38.85;21.52;;;1.50;99.90;;;;;;5009207;28;20040;-94
2023/12/01 00:32:35;;;;;;;34.05;20.35;;;1.50;99.90;;;;;;5004754;28;20061;-92
2023/12/01 00:35:01;;;;;;;33.80;19.83;;;1.60;99.90;;;;;;5004492;28;20640;-93
2023/12/01 00:37:33;;;;;;;33.28;20.83;;;1.60;99.90;;;;;;5029555;28;20064;-94
2023/12/01 00:39:58;;;;;;;35.58;21.45;;;1.60;99.90;;;;;;5030884;28;20025;-94
2023/12/01 00:42:25;;;;;;;29.52;19.63;;;1.50;99.90;;;;;;5037754;28;20248;-93
2023/12/01 00:44:51;;;;;;;32.80;21.63;;;1.50;99.90;;;;;;5042427;28;20017;-93
2023/12/01 00:47:16;;;;;;;31.27;20.15;;;1.50;99.90;;;;;;5028723;28;20033;-93
2023/12/01 00:49:44;;;;;;;38.78;22.33;;;1.50;99.90;;;;;;5039070;28;20040;-94
2023/12/01 00:52:10;;;;;;;36.22;21.33;;;1.60;99.90;;;;;;5011046;28;20033;-92
2023/12/01 00:54:35;;;;;;;40.67;23.58;;;1.50;99.90;;;;;;5022893;28;20030;-93
2023/12/01 00:57:02;;;;;;;37.90;21.00;;;1.50;99.90;;;;;;5034718;28;20082;-94
2023/12/01 00:59:27;;;;;;;34.47;22.83;;;1.50;99.90;;;;;;5012168;28;20018;-94
2023/12/01 01:01:53;;;;;;;41.70;23.17;;;1.50;99.90;;;;;;5032888;28;20045;-93
2023/12/01 01:04:19;;;;;;;35.53;22.42;;;1.50;99.90;;;;;;5036384;28;20510;-93
2023/12/01 01:06:45;;;;;;;36.05;22.92;;;1.50;99.90;;;;;;5023642;28;20025;-93
2023/12/01 01:09:10;;;;;;;43.28;22.27;;;1.50;99.90;;;;;;5027924;28;20044;-93
2023/12/01 01:11:36;;;;;;;38.20;21.98;;;1.50;99.90;;;;;;5040141;28;20026;-94
2023/12/01 01:14:02;;;;;;;39.53;23.15;;;1.50;99.90;;;;;;5026136;28;20029;-94
2023/12/01 01:16:27;;;;;;;36.27;22.83;;;1.50;99.90;;;;;;5030773;28;20048;-95
2023/12/01 01:18:53;;;;;;;37.03;23.17;;;1.50;99.90;;;;;;5045546;28;20415;-93
2023/12/01 01:21:19;;;;;;;39.40;22.38;;;1.50;99.90;;;;;;5043120;28;20014;-94
2023/12/01 01:23:48;;;;;;;37.47;21.85;;;1.60;99.90;;;;;;5038402;28;20022;-93
2023/12/01 01:26:14;;;;;;;33.72;20.90;;;1.50;99.90;;;;;;5032303;28;20044;-93
2023/12/01 01:28:40;;;;;;;39.45;22.38;;;1.60;99.90;;;;;;5037050;28;20050;-94
2023/12/01 01:31:06;;;;;;;38.45;21.83;;;1.50;99.90;;;;;;5032317;28;20029;-94
2023/12/01 01:33:32;;;;;;;33.17;20.70;;;1.50;99.90;;;;;;5045110;28;20052;-93
2023/12/01 01:36:05;;;;;;;37.35;21.88;;;1.50;99.90;;;;;;5036116;28;20034;-93
2023/12/01 01:38:31;;;;;;;38.70;22.10;;;1.60;99.90;;;;;;5027772;28;20100;-94
2023/12/01 01:40:56;;;;;;;33.67;19.90;;;1.60;99.90;;;;;;5026147;28;20625;-93
2023/12/01 01:43:23;;;;;;;40.08;22.75;;;1.50;99.90;;;;;;5035388;28;20033;-93
2023/12/01 01:46:09;;;;;;;37.47;22.42;;;1.60;99.90;;;;;;5022878;28;20087;-92
2023/12/01 01:48:35;;;;;;;34.38;21.33;;;1.60;99.90;;;;;;5025260;28;20414;-93
2023/12/01 01:51:02;;;;;;;41.25;21.33;;;1.60;99.90;;;;;;5035964;28;20040;-92
2023/12/01 01:53:29;;;;;;;39.25;22.55;;;1.60;99.90;;;;;;5010608;28;20057;-92
2023/12/01 01:55:58;;;;;;;37.85;21.20;;;1.50;99.90;;;;;;5025090;28;20082;-92
2023/12/01 01:58:25;;;;;;;35.83;20.73;;;1.50;99.90;;;;;;5043316;28;20029;-93
2023/12/01 02:00:51;;;;;;;39.25;21.67;;;1.60;99.90;;;;;;5029572;28;20029;-92
2023/12/01 02:03:19;;;;;;;39.63;21.10;;;1.60;99.90;;;;;;5031312;28;20022;-94
2023/12/01 02:05:47;;;;;;;39.58;22.33;;;1.60;99.90;;;;;;5042725;28;20044;-94
2023/12/01 02:08:24;;;;;;;34.85;21.27;;;1.60;99.90;;;;;;5043087;28;20026;-95
2023/12/01 02:10:51;;;;;;;38.53;22.23;;;1.70;99.90;;;;;;5044219;28;20021;-93
2023/12/01 02:13:17;;;;;;;31.33;19.85;;;1.70;99.90;;;;;;5029451;28;20022;-92
2023/12/01 02:15:43;;;;;;;38.83;21.55;;;1.60;99.90;;;;;;5018187;28;20274;-94
2023/12/01 02:18:38;;;;;;;34.53;20.50;;;1.60;99.90;;;;;;5027047;28;20040;-94
2023/12/01 02:21:07;;;;;;;34.13;20.92;;;1.70;99.90;;;;;;4994293;28;20033;-94
2023/12/01 02:23:32;;;;;;;38.42;21.10;;;1.70;99.90;;;;;;5036053;28;20085;-93
2023/12/01 02:25:58;;;;;;;37.38;22.08;;;1.70;99.90;;;;;;5044550;28;20025;-94
2023/12/01 02:28:24;;;;;;;34.33;20.83;;;1.70;99.90;;;;;;5044146;28;20022;-94
2023/12/01 02:30:56;;;;;;;34.85;19.45;;;1.70;99.90;;;;;;5024739;28;20030;-95
2023/12/01 02:33:23;;;;;;;37.30;21.48;;;1.70;99.90;;;;;;5035266;28;20143;-94
2023/12/01 02:35:51;;;;;;;36.58;20.58;;;1.70;99.90;;;;;;5033019;28;20030;-94
2023/12/01 02:38:20;;;;;;;34.15;21.15;;;1.70;99.90;;;;;;5037336;28;20018;-93
2023/12/01 02:40:50;;;;;;;35.33;21.17;;;1.70;99.90;;;;;;5023712;28;20053;-93
2023/12/01 02:43:17;;;;;;;36.67;22.77;;;1.70;99.90;;;;;;5033912;28;20269;-93
2023/12/01 02:45:43;;;;;;;38.63;21.90;;;1.70;99.90;;;;;;5040902;28;20093;-93
2023/12/01 02:48:10;;;;;;;37.95;20.13;;;1.70;99.90;;;;;;5030160;28;20022;-94
2023/12/01 02:50:36;;;;;;;34.92;20.45;;;1.70;99.90;;;;;;5031040;28;20033;-94
2023/12/01 02:53:03;;;;;;;36.95;22.42;;;1.60;99.90;;;;;;5035849;28;20032;-93
2023/12/01 02:55:29;;;;;;;39.60;20.52;;;1.70;99.90;;;;;;5038834;28;20030;-94
2023/12/01 02:57:58;;;;;;;33.80;22.42;;;1.60;99.90;;;;;;5015529;28;20459;-93
2023/12/01 03:00:24;;;;;;;34.58;21.50;;;1.60;99.90;;;;;;5035256;28;20021;-93
2023/12/01 03:02:53;;;;;;;38.92;22.45;;;1.60;99.90;;;;;;5033480;28;20025;-93
2023/12/01 03:05:19;;;;;;;35.13;20.02;;;1.60;99.90;;;;;;5035651;28;20042;-93
2023/12/01 03:07:45;;;;;;;37.53;21.45;;;1.60;99.90;;;;;;5021965;28;20037;-94
2023/12/01 03:10:12;;;;;;;40.88;22.38;;;1.60;99.90;;;;;;5025989;28;20022;-93
2023/12/01 03:12:41;;;;;;;38.03;23.27;;;1.60;99.90;;;;;;5023565;28;20480;-91
2023/12/01 03:15:22;;;;;;;36.83;20.88;;;1.60;99.90;;;;;;5043339;28;20032;-92
2023/12/01 03:17:48;;;;;;;35.80;20.92;;;1.70;99.90;;;;;;5015048;28;20026;-92
2023/12/01 03:20:15;;;;;;;34.33;20.08;;;1.60;99.90;;;;;;5032871;28;20299;-93
2023/12/01 03:22:42;;;;;;;40.33;22.65;;;1.60;99.90;;;;;;5033123;28;20066;-92
2023/12/01 03:25:11;;;;;;;38.10;21.02;;;1.60;99.90;;;;;;5035227;28;20017;-93
2023/12/01 03:27:41;;;;;;;42.20;24.00;;;1.50;99.90;;;;;;5039846;28;20547;-93
2023/12/01 03:30:14;;;;;;;40.42;22.42;;;1.50;99.90;;;;;;5039959;28;20119;-93
2023/12/01 03:32:50;;;;;;;41.20;23.13;;;1.50;99.90;;;;;;5031036;28;20047;-96
2023/12/01 03:35:18;;;;;;;38.95;23.23;;;1.50;99.90;;;;;;5022916;28;20543;-93
2023/12/01 03:37:44;;;;;;;39.50;23.15;;;1.50;99.90;;;;;;5039103;28;20033;-93
2023/12/01 03:40:13;;;;;;;36.67;21.42;;;1.50;99.90;;;;;;5016513;28;20060;-93
2023/12/01 03:42:46;;;;;;;40.22;22.80;;;1.40;99.90;;;;;;5022964;28;20604;-92
2023/12/01 03:45:13;;;;;;;41.33;22.75;;;1.40;99.90;;;;;;5012138;28;20029;-93
2023/12/01 03:47:40;;;;;;;45.10;24.15;;;1.30;99.90;;;;;;5021546;28;20033;-93
2023/12/01 03:50:11;;;;;;;42.10;24.23;;;1.30;99.90;;;;;;5010614;28;20320;-92
2023/12/01 03:52:41;;;;;;;41.00;22.80;;;1.20;99.90;;;;;;5037437;28;20118;-94
2023/12/01 03:55:08;;;;;;;41.95;23.83;;;1.20;99.90;;;;;;5034044;28;20054;-93
2023/12/01 03:57:34;;;;;;;44.50;22.27;;;1.20;99.90;;;;;;5033206;28;20030;-93
2023/12/01 04:00:00;;;;;;;42.00;21.60;;;1.10;99.90;;;;;;5039649;28;20053;-92
2023/12/01 04:02:26;;;;;;;41.30;23.30;;;1.10;99.90;;;;;;5006718;28;20075;-93
2023/12/01 04:04:52;;;;;;;42.67;23.85;;;1.00;99.90;;;;;;5028360;28;20038;-91
2023/12/01 04:07:18;;;;;;;42.47;23.17;;;1.00;99.90;;;;;;5040669;28;20161;-92
2023/12/01 04:09:43;;;;;;;45.20;24.27;;;1.00;99.90;;;;;;5024794;28;20057;-92
2023/12/01 04:12:09;;;;;;;43.33;24.63;;;0.90;99.90;;;;;;5025771;28;20018;-93
2023/12/01 04:14:35;;;;;;;43.65;22.35;;;0.90;99.90;;;;;;5041468;28;20025;-93
2023/12/01 04:17:08;;;;;;;43.03;23.55;;;1.00;99.90;;;;;;5040102;28;20113;-91
2023/12/01 04:19:38;;;;;;;41.13;22.48;;;1.00;99.90;;;;;;5035434;28;20026;-92
2023/12/01 04:22:07;;;;;;;46.20;23.85;;;1.00;99.90;;;;;;5020566;28;20138;-92
2023/12/01 04:24:34;;;;;;;40.45;22.45;;;0.90;99.90;;;;;;5027913;28;20029;-94
2023/12/01 04:27:01;;;;;;;48.90;24.25;;;0.90;99.90;;;;;;5024016;28;20053;-93
2023/12/01 04:29:30;;;;;;;44.95;23.58;;;0.90;99.90;;;;;;5038655;28;20439;-93
2023/12/01 04:31:57;;;;;;;42.38;23.88;;;0.90;99.90;;;;;;5020415;28;20030;-92
2023/12/01 04:34:22;;;;;;;46.78;24.42;;;0.80;99.90;;;;;;5033974;28;20064;-93
2023/12/01 04:36:50;;;;;;;39.90;21.33;;;0.80;99.90;;;;;;5020590;28;20029;-92
2023/12/01 04:39:15;;;;;;;39.33;21.95;;;0.80;99.90;;;;;;5020012;28;20033;-92
2023/12/01 04:41:41;;;;;;;41.97;21.65;;;0.80;99.90;;;;;;5030717;28;20029;-92
2023/12/01 04:44:07;;;;;;;36.55;21.70;;;0.80;99.90;;;;;;5035597;28;20026;-92
2023/12/01 04:46:32;;;;;;;44.10;22.88;;;0.90;99.90;;;;;;5039758;28;20104;-92
2023/12/01 04:48:58;;;;;;;42.47;23.17;;;0.90;99.90;;;;;;5033050;28;20022;-93
2023/12/01 04:51:24;;;;;;;43.83;23.05;;;0.90;99.90;;;;;;5012820;28;20049;-91
2023/12/01 04:53:49;;;;;;;41.85;22.67;;;0.90;99.90;;;;;;5037052;28;20032;-92
2023/12/01 04:56:15;;;;;;;38.63;22.20;;;0.80;99.90;;;;;;5023290;28;20026;-92
2023/12/01 04:58:41;;;;;;;41.95;23.42;;;0.80;99.90;;;;;;5028131;28;20033;-93
2023/12/01 05:01:07;;;;;;;38.95;23.00;;;0.80;99.90;;;;;;5019331;28;20029;-94
2023/12/01 05:03:33;;;;;;;44.20;22.92;;;0.80;99.90;;;;;;5023983;28;20037;-93
2023/12/01 05:05:58;;;;;;;36.67;20.50;;;0.70;99.90;;;;;;5027105;28;20022;-92
2023/12/01 05:08:27;;;;;;;39.40;20.85;;;0.80;99.90;;;;;;5031762;28;20076;-93
2023/12/01 05:10:54;;;;;;;38.90;20.63;;;0.80;99.90;;;;;;5024883;28;20029;-92
2023/12/01 05:13:20;;;;;;;45.40;23.90;;;0.80;99.90;;;;;;5039479;28;20539;-93
2023/12/01 05:15:46;;;;;;;39.75;20.70;;;0.70;99.90;;;;;;5018441;28;20064;-92
2023/12/01 05:18:12;;;;;;;42.63;23.65;;;0.70;99.90;;;;;;5037972;28;20025;-93
2023/12/01 05:20:38;;;;;;;39.60;23.13;;;0.80;99.90;;;;;;5017404;28;20085;-93
2023/12/01 05:23:08;;;;;;;43.17;22.48;;;0.80;99.90;;;;;;5024305;28;20079;-92
2023/12/01 05:25:36;;;;;;;38.17;21.50;;;0.80;99.90;;;;;;5039048;28;20026;-91
2023/12/01 05:28:05;;;;;;;37.67;21.55;;;0.70;99.90;;;;;;5034397;28;20025;-92
2023/12/01 05:30:34;;;;;;;;;;;0.70;99.90;;;;;;5032988;28;20021;-93
2023/12/01 05:33:00;;;;;;;38.47;22.10;;;0.70;99.90;;;;;;5031530;28;19909;-94
2023/12/01 05:35:26;;;;;;;38.30;20.85;;;0.70;99.90;;;;;;5021955;28;20056;-93
2023/12/01 05:37:57;;;;;;;38.33;21.65;;;0.70;99.90;;;;;;5026080;28;20056;-94
2023/12/01 05:40:31;;;;;;;43.53;24.33;;;0.70;99.90;;;;;;5016813;28;20069;-94
2023/12/01 05:42:57;;;;;;;38.83;20.23;;;0.70;99.90;;;;;;5045120;28;20025;-93
2023/12/01 05:45:33;;;;;;;41.70;21.38;;;0.70;99.90;;;;;;5014710;28;20049;-92
2023/12/01 05:48:00;;;;;;;38.53;22.27;;;0.70;99.90;;;;;;5039200;28;20072;-94
2023/12/01 05:50:27;;;;;;;39.92;22.48;;;0.70;99.90;;;;;;5041857;28;20025;-93
2023/12/01 05:52:56;;;;;;;39.88;22.92;;;0.70;99.90;;;;;;5034081;28;20064;-94
2023/12/01 05:55:33;;;;;;;37.75;21.50;;;0.60;99.90;;;;;;5013313;28;20038;-93
2023/12/01 05:58:13;;;;;;;39.08;21.48;;;0.60;99.90;;;;;;5038039;28;20060;-93
2023/12/01 06:00:46;;;;;;;37.35;21.08;;;0.60;99.90;;;;;;5014912;28;20501;-95
2023/12/01 06:03:12;;;;;;;44.55;23.08;;;0.60;99.90;;;;;;5023677;28;20037;-94
2023/12/01 06:05:38;;;;;;;38.17;21.13;;;0.50;99.90;;;;;;5024775;28;20025;-93
2023/12/01 06:08:10;;;;;;;40.65;21.42;;;0.60;99.90;;;;;;5034917;28;20049;-92
2023/12/01 06:10:36;;;;;;;43.67;23.15;;;0.60;99.90;;;;;;5042051;28;20025;-93
2023/12/01 06:13:05;;;;;;;38.38;20.50;;;0.60;99.90;;;;;;5021079;28;20034;-92
2023/12/01 06:15:31;;;;;;;46.47;24.55;;;0.60;99.90;;;;;;5032675;28;20053;-93
2023/12/01 06:18:02;;;;;;;42.70;23.13;;;0.60;99.90;;;;;;5009421;28;20022;-95
2023/12/01 06:20:31;;;;;;;40.20;22.02;;;0.60;99.90;;;;;;5036815;28;20026;-94
2023/12/01 06:23:06;;;;;;;39.58;22.77;;;0.50;99.90;;;;;;5043061;28;20022;-93
2023/12/01 06:25:37;;;;;;;44.70;25.40;;;0.50;99.90;;;;;;5041278;28;20025;-92
2023/12/01 06:28:04;;;;;;;46.17;22.73;;;0.50;99.90;;;;;;5038988;28;20033;-92
2023/12/01 06:30:38;;;;;;;41.65;22.02;;;0.50;99.90;;;;;;5028049;28;20480;-93
2023/12/01 06:33:08;;;;;;;40.90;22.23;;;0.50;99.90;;;;;;5033277;28;20523;-94
2023/12/01 06:35:33;;;;;;;39.58;21.75;;;0.50;99.90;;;;;;5029510;28;20661;-93
2023/12/01 06:38:01;;;;;;;39.63;20.98;;;0.40;99.90;;;;;;5034286;28;20029;-92
2023/12/01 06:40:27;;;;;;;35.90;20.20;;;0.40;99.90;;;;;;5043500;28;20018;-92
2023/12/01 06:42:54;;;;;;;42.15;24.60;;;0.50;99.90;;;;;;5023104;28;20038;-92
2023/12/01 06:45:26;;;;;;;42.53;22.55;;;0.50;99.90;;;;;;5043494;28;20025;-93
2023/12/01 06:47:55;;;;;;;40.90;22.27;;;0.50;99.90;;;;;;5030779;28;20026;-92
2023/12/01 06:50:26;;;;;;;41.45;22.70;;;0.50;99.90;;;;;;5025637;28;20079;-93
2023/12/01 06:52:59;;;;;;;37.35;21.00;;;0.50;99.90;;;;;;5029877;28;20037;-92
2023/12/01 06:55:24;;;;;;;41.20;25.15;;;0.40;99.90;;;;;;5027258;28;20025;-91
2023/12/01 06:57:50;;;;;;;46.67;28.60;;;0.40;99.90;;;;;;5032263;28;20036;-91
2023/12/01 07:00:33;;;;;;;48.35;29.33;;;0.40;99.90;;;;;;5040617;28;20017;-92
2023/12/01 07:03:07;;;;;;;48.38;28.17;;;0.40;99.90;;;;;;5021353;28;20026;-92
2023/12/01 07:05:35;;;;;;;45.97;28.13;;;0.40;99.90;;;;;;5021949;28;20040;-92
2023/12/01 07:08:03;;;;;;;46.67;28.52;;;0.40;99.90;;;;;;5024867;28;20206;-93
2023/12/01 07:10:29;;;;;;;45.35;27.65;;;0.40;99.90;;;;;;5041697;28;20029;-92
2023/12/01 07:12:55;;;;;;;48.90;26.10;;;0.40;99.90;;;;;;5032973;28;20018;-92
2023/12/01 07:15:24;;;;;;;48.13;27.80;;;0.50;99.90;;;;;;5029685;28;20476;-92
2023/12/01 07:17:56;;;;;;;44.78;25.73;;;0.50;99.90;;;;;;5027994;28;20060;-91
2023/12/01 07:20:22;;;;;;;51.58;26.05;;;0.50;99.90;;;;;;5007080;28;20018;-94
2023/12/01 07:22:51;;;;;;;52.60;30.70;;;0.50;99.90;;;;;;5037629;28;20026;-92
2023/12/01 07:25:21;;;;;;;50.38;27.77;;;0.50;99.90;;;;;;5039463;28;20025;-93
2023/12/01 07:27:52;;;;;;;47.17;25.60;;;0.50;99.90;;;;;;5018664;28;20022;-93
2023/12/01 07:30:18;;;;;;;46.67;26.00;;;0.60;99.90;;;;;;5002447;28;20033;-93
2023/12/01 07:32:44;;;;;;;49.38;25.83;;;0.60;99.90;;;;;;5038447;28;20052;-93
2023/12/01 07:35:12;;;;;;;44.60;24.63;;;0.60;99.90;;;;;;5040125;28;20026;-92
2023/12/01 07:37:44;;;;;;;40.97;23.60;;;0.60;99.90;;;;;;5039279;28;20086;-92
2023/12/01 07:40:11;;;;;;;41.88;23.75;;;0.70;99.90;;;;;;5026598;28;20022;-93
2023/12/01 07:42:38;;;;;;;45.33;24.40;;;0.70;99.90;;;;;;5022815;28;20114;-93
2023/12/01 07:45:07;;;;;;;45.97;25.90;;;0.70;99.90;;;;;;5021164;28;20101;-94
2023/12/01 07:47:33;;;;;;;44.10;24.38;;;0.70;99.90;;;;;;5021384;28;20039;-93
2023/12/01 07:49:59;;;;;;;47.30;24.75;;;0.70;99.90;;;;;;5042122;28;20036;-91
2023/12/01 07:52:25;;;;;;;49.08;25.40;;;0.70;99.90;;;;;;5039399;28;20026;-94
2023/12/01 07:54:51;;;;;;;46.67;24.33;;;0.80;99.90;;;;;;5042181;28;20492;-92
2023/12/01 07:57:20;;;;;;;47.88;24.80;;;0.70;99.90;;;;;;5041230;28;20026;-92
2023/12/01 07:59:52;;;;;;;49.70;25.35;;;0.80;99.90;;;;;;5042707;28;20044;-93
2023/12/01 08:02:18;;;;;;;48.88;25.05;;;0.80;99.90;;;;;;5025279;28;20578;-92
2023/12/01 08:04:43;;;;;;;52.92;26.05;;;0.90;99.90;;;;;;5041711;28;20037;-93
2023/12/01 08:07:09;;;;;;;44.92;24.52;;;0.90;99.90;;;;;;5028006;28;20067;-92
2023/12/01 08:09:36;;;;;;;52.22;26.90;;;0.90;99.90;;;;;;5042129;28;20028;-93
2023/12/01 08:12:03;;;;;;;49.97;26.23;;;0.90;99.90;;;;;;5039408;28;20029;-94
2023/12/01 08:14:29;;;;;;;48.72;25.20;;;0.90;99.90;;;;;;5013861;28;20017;-92
2023/12/01 08:16:55;;;;;;;48.85;24.92;;;0.90;99.90;;;;;;5031600;28;20373;-93
2023/12/01 08:19:21;;;;;;;44.72;23.98;;;0.90;99.90;;;;;;5024247;28;20018;-93
2023/12/01 08:21:47;;;;;;;50.25;26.90;;;0.90;99.90;;;;;;5040057;28;20021;-92
2023/12/01 08:24:12;;;;;;;50.85;25.75;;;0.90;99.90;;;;;;5028089;28;20021;-92
2023/12/01 08:26:38;;;;;;;50.03;25.15;;;0.90;99.90;;;;;;5039511;28;20563;-92
2023/12/01 08:29:07;;;;;;;43.22;24.90;;;0.90;99.90;;;;;;5042504;28;20055;-94
2023/12/01 08:31:33;;;;;;;49.28;24.40;;;1.00;99.90;;;;;;5044428;28;20047;-92
2023/12/01 08:33:59;;;;;;;52.05;25.85;;;1.00;99.90;;;;;;5015125;28;20603;-93
2023/12/01 08:36:24;;;;;;;48.08;25.05;;;1.00;99.90;;;;;;5017531;28;20156;-92
2023/12/01 08:38:50;;;;;;;49.50;28.40;;;1.00;99.90;;;;;;5020509;28;20558;-95
2023/12/01 08:41:16;;;;;;;50.80;26.92;;;1.10;99.90;;;;;;5023002;28;20038;-91
2023/12/01 08:43:42;;;;;;;49.50;25.08;;;1.10;99.90;;;;;;5035299;28;20025;-92
2023/12/01 08:46:08;;;;;;;55.75;27.73;;;1.10;99.90;;;;;;5026624;28;20029;-93
2023/12/01 08:48:34;;;;;;;50.70;24.38;;;1.10;99.90;;;;;;5037179;28;20092;-92
2023/12/01 08:51:00;;;;;;;52.20;26.10;;;1.20;99.90;;;;;;5039256;28;20437;-93
2023/12/01 08:53:25;;;;;;;53.20;25.15;;;1.20;99.90;;;;;;5029652;28;20025;-92
2023/12/01 08:55:51;;;;;;;52.63;25.52;;;1.20;99.90;;;;;;5046873;28;20029;-93
2023/12/01 08:58:22;;;;;;;52.00;25.38;;;1.30;99.90;;;;;;5037326;28;20030;-93
2023/12/01 09:00:47;;;;;;;52.75;25.92;;;1.30;99.90;;;;;;5029892;28;20458;-92
2023/12/01 09:03:13;;;;;;;51.40;25.33;;;1.30;99.90;;;;;;5033136;28;20026;-93
2023/12/01 09:05:39;;;;;;;55.80;26.85;;;1.30;99.90;;;;;;5041873;28;20021;-95
2023/12/01 09:08:05;;;;;;;53.88;26.63;;;1.30;99.90;;;;;;5027518;28;20128;-94
2023/12/01 09:10:32;;;;;;;52.58;26.42;;;1.30;99.90;;;;;;5021240;28;20040;-93
2023/12/01 09:12:57;;;;;;;54.42;25.15;;;1.40;99.90;;;;;;5027927;28;20076;-93
2023/12/01 09:15:26;;;;;;;53.83;27.30;;;1.30;99.90;;;;;;5044956;28;20392;-90
2023/12/01 09:17:52;;;;;;;54.15;26.05;;;1.40;99.90;;;;;;5045330;28;20121;-94
2023/12/01 09:20:19;;;;;;;52.47;27.80;;;1.40;99.90;;;;;;5020032;28;20025;-93
2023/12/01 09:22:46;;;;;;;51.30;26.65;;;1.40;99.90;;;;;;5035724;28;20162;-92
2023/12/01 09:25:12;;;;;;;50.35;25.75;;;1.40;99.90;;;;;;5045042;28;20440;-93
2023/12/01 09:27:39;;;;;;;61.13;25.95;;;1.40;99.90;;;;;;5046214;28;20021;-93
2023/12/01 09:30:07;;;;;;;48.92;26.02;;;1.40;99.90;;;;;;5019453;28;20038;-89
2023/12/01 09:32:33;;;;;;;55.08;27.35;;;1.40;99.90;;;;;;5037794;28;20037;-93
2023/12/01 09:34:58;;;;;;;52.70;26.25;;;1.50;99.90;;;;;;5048356;28;20048;-92
2023/12/01 09:37:24;;;;;;;55.30;26.63;;;1.50;99.90;;;;;;5032977;28;20511;-91
2023/12/01 09:39:51;;;;;;;56.13;25.77;;;1.50;99.90;;;;;;5014963;28;20017;-94
2023/12/01 09:42:19;;;;;;;51.67;24.42;;;1.50;99.90;;;;;;5038420;28;20030;-94
2023/12/01 09:44:45;;;;;;;52.90;24.17;;;1.50;99.90;;;;;;5017200;28;20037;-92
2023/12/01 09:47:17;;;;;;;53.22;23.90;;;1.60;99.90;;;;;;5020670;28;20034;-93
2023/12/01 09:49:46;;;;;;;51.25;22.92;;;1.60;99.90;;;;;;5006276;28;20086;-93
2023/12/01 09:52:12;;;;;;;51.28;24.15;;;1.60;99.90;;;;;;5021768;28;20127;-93
2023/12/01 09:54:38;;;;;;;54.35;24.20;;;1.60;99.90;;;;;;5003694;28;20026;-92
2023/12/01 09:57:09;;;;;;;55.22;26.40;;;1.70;99.90;;;;;;4996741;28;20111;-93
2023/12/01 09:59:36;;;;;;;52.72;23.33;;;1.70;99.90;;;;;;5014374;28;20021;-93
2023/12/01 10:02:05;;;;;;;53.72;24.75;;;1.60;99.90;;;;;;5040888;28;20022;-93
2023/12/01 10:04:35;;;;;;;53.45;23.20;;;1.70;99.90;;;;;;5020690;28;20029;-93
2023/12/01 10:07:02;;;;;;;51.40;24.30;;;1.70;99.90;;;;;;5030750;28;20025;-92
2023/12/01 10:09:33;;;;;;;48.28;24.35;;;1.70;99.90;;;;;;5004850;28;20037;-93
2023/12/01 10:12:07;;;;;;;56.75;24.02;;;1.70;99.90;;;;;;5015092;28;20033;-92
2023/12/01 10:14:34;;;;;;;53.38;24.45;;;1.80;99.90;;;;;;5026689;28;20088;-93
2023/12/01 10:17:04;;;;;;;53.00;23.30;;;1.80;99.90;;;;;;5013481;28;20029;-91
2023/12/01 10:19:34;;;;;;;52.42;23.45;;;1.80;99.90;;;;;;5030041;28;20026;-93
2023/12/01 10:22:00;;;;;;;52.63;25.13;;;1.90;99.90;;;;;;5024731;28;20021;-93
2023/12/01 10:24:26;;;;;;;50.17;24.38;;;1.80;99.90;;;;;;5011987;28;20021;-92
2023/12/01 10:26:56;;;;;;;51.67;24.27;;;1.90;99.90;;;;;;5015117;28;20022;-92
2023/12/01 10:29:30;;;;;;;53.53;24.58;;;1.90;99.90;;;;;;5027096;28;20030;-92
2023/12/01 10:32:07;;;;;;;49.08;23.20;;;1.90;99.90;;;;;;5021125;28;20026;-93
2023/12/01 10:34:33;;;;;;;50.45;24.60;;;1.90;99.90;;;;;;5021227;28;20216;-93
2023/12/01 10:37:00;;;;;;;49.33;22.40;;;1.90;99.90;;;;;;5005998;28;20026;-92
2023/12/01 10:39:27;;;;;;;46.33;23.85;;;1.90;99.90;;;;;;5041675;28;20029;-90
2023/12/01 10:41:55;;;;;;;52.72;23.90;;;1.90;99.90;;;;;;5021670;28;20093;-93
2023/12/01 10:44:25;;;;;;;49.00;23.58;;;2.00;99.90;;;;;;5035488;28;20100;-94
2023/12/01 10:46:52;;;;;;;47.92;22.85;;;2.00;99.90;;;;;;5043087;28;20111;-94
2023/12/01 10:49:22;;;;;;;52.45;23.60;;;2.00;99.90;;;;;;5016365;28;20021;-93
2023/12/01 10:51:55;;;;;;;47.67;22.58;;;2.00;99.90;;;;;;5032438;28;20026;-94
2023/12/01 10:54:27;;;;;;;52.63;23.77;;;2.00;99.90;;;;;;5023965;28;20033;-92
2023/12/01 10:57:10;;;;;;;54.88;24.75;;;1.90;99.90;;;;;;5031466;28;20033;-94
2023/12/01 10:59:37;;;;;;;46.75;22.90;;;1.90;99.90;;;;;;5030122;28;20014;-92
2023/12/01 11:02:05;;;;;;;48.65;23.67;;;1.90;99.90;;;;;;5024139;28;20026;-94
2023/12/01 11:04:33;;;;;;;50.00;24.73;;;2.00;99.90;;;;;;5007160;28;20022;-93
2023/12/01 11:07:37;;;;;;;51.63;24.83;;;2.00;99.90;;;;;;5031891;28;20026;-93
2023/12/01 11:10:12;;;;;;;47.33;22.10;;;1.90;99.90;;;;;;5032299;28;20041;-90
2023/12/01 11:12:48;;;;;;;58.60;25.27;;;2.00;99.90;;;;;;5035215;28;20468;-91
2023/12/01 11:15:19;;;;;;;47.42;21.90;;;2.00;99.90;;;;;;5039736;28;20108;-93
2023/12/01 11:17:46;;;;;;;51.35;23.75;;;2.00;99.90;;;;;;5037831;28;20061;-91
2023/12/01 11:20:31;;;;;;;50.78;22.83;;;2.00;99.90;;;;;;5026960;28;20014;-92
2023/12/01 11:23:23;;;;;;;45.53;22.38;;;2.00;99.90;;;;;;5036471;28;20071;-91
2023/12/01 11:25:55;;;;;;;46.40;22.48;;;2.00;99.90;;;;;;5038182;28;20022;-92
2023/12/01 11:28:46;;;;;;;51.83;22.73;;;2.10;99.90;;;;;;5012289;28;20026;-91
2023/12/01 11:34:08;;;;;;;46.72;21.55;;;2.00;99.90;;;;;;5035528;28;20057;-89
2023/12/01 11:36:36;;;;;;;49.10;23.88;;;1.90;99.90;;;;;;5023571;28;20042;-92
2023/12/01 11:41:43;;;;;;;50.55;21.58;;;1.90;99.90;;;;;;5020755;28;20172;-91
2023/12/01 11:44:24;;;;;;;61.85;28.80;;;2.00;99.90;;;;;;5026053;28;20018;-92
2023/12/01 11:47:00;;;;;;;56.00;25.13;;;2.00;99.90;;;;;;5036360;28;20018;-92
2023/12/01 11:49:30;;;;;;;67.28;29.20;;;2.00;99.90;;;;;;5038789;28;20468;-92
2023/12/01 11:52:00;;;;;;;58.00;27.05;;;1.90;99.90;;;;;;5016581;28;20532;-90
2023/12/01 11:54:27;;;;;;;69.10;35.45;;;1.90;99.90;;;;;;5017072;28;20064;-91
2023/12/01 11:56:57;;;;;;;55.10;28.45;;;2.00;99.90;;;;;;5036087;28;20021;-90
2023/12/01 11:59:24;;;;;;;48.40;23.23;;;2.00;99.90;;;;;;5030247;28;20045;-92
2023/12/01 12:01:54;;;;;;;49.22;24.23;;;2.00;99.90;;;;;;5022840;28;20018;-91
2023/12/01 12:04:19;;;;;;;46.22;23.98;;;1.90;99.90;;;;;;5008459;28;20060;-92
2023/12/01 12:06:48;;;;;;;50.78;24.50;;;1.90;99.90;;;;;;5026471;28;20073;-92
2023/12/01 12:09:17;;;;;;;56.05;24.45;;;2.00;99.90;;;;;;5024373;28;20025;-92
2023/12/01 12:11:48;;;;;;;50.05;24.48;;;1.90;99.90;;;;;;5016596;28;20025;-92
2023/12/01 12:14:15;;;;;;;53.85;24.45;;;2.00;99.90;;;;;;5035462;28;20021;-91
2023/12/01 12:16:44;;;;;;;57.65;27.05;;;1.90;99.90;;;;;;5034740;28;20040;-91
2023/12/01 12:19:09;;;;;;;51.42;24.65;;;1.90;99.90;;;;;;5032011;28;20724;-90
2023/12/01 12:21:36;;;;;;;47.90;23.77;;;1.90;99.90;;;;;;5029605;28;20025;-92
2023/12/01 12:24:02;;;;;;;48.20;24.25;;;1.90;99.90;;;;;;5001919;28;20117;-90
2023/12/01 12:26:29;;;;;;;50.97;23.65;;;1.90;99.90;;;;;;5024465;28;20049;-91
2023/12/01 12:29:03;;;;;;;48.00;23.73;;;2.00;99.90;;;;;;5024253;28;20558;-91
2023/12/01 12:31:32;;;;;;;44.53;24.17;;;1.90;99.90;;;;;;5017491;28;20086;-92
2023/12/01 12:34:04;;;;;;;43.80;23.25;;;2.00;99.90;;;;;;5036077;28;20025;-91
2023/12/01 12:36:32;;;;;;;45.03;21.77;;;1.90;99.90;;;;;;5033690;28;20121;-90
2023/12/01 12:38:59;;;;;;;45.38;21.90;;;2.00;99.90;;;;;;5024572;28;20021;-91
2023/12/01 12:41:27;;;;;;;44.88;19.92;;;2.00;99.90;;;;;;5038436;28;20104;-91
2023/12/01 12:43:54;;;;;;;47.42;22.77;;;2.00;99.90;;;;;;5028566;28;20036;-94
2023/12/01 12:46:20;;;;;;;42.90;22.50;;;2.00;99.90;;;;;;5027413;28;20089;-94
2023/12/01 12:48:47;;;;;;;46.20;23.88;;;2.00;99.90;;;;;;5036285;28;20083;-92